createdAt,value
2023-02-14T00:03:54.920Z,102353.31
2023-02-14T00:08:57.232Z,102362.09
2023-02-14T00:14:18.120Z,102360.22
2023-02-14T00:19:21.010Z,102360.22
2023-02-14T00:24:26.100Z,102356.63
2023-02-14T00:29:30.569Z,102356.53
2023-02-14T00:34:33.669Z,102362.69
2023-02-14T00:39:35.756Z,102365.25
2023-02-14T00:44:38.330Z,102361.63
2023-02-14T00:49:40.397Z,102352.84
2023-02-14T00:54:42.682Z,102362.38
2023-02-14T00:59:44.707Z,102368.47
2023-02-14T01:04:46.925Z,102356.06
2023-02-14T01:09:49.016Z,102348.19
2023-02-14T01:14:51.067Z,102363.97
2023-02-14T01:19:53.743Z,102360.34
2023-02-14T01:24:55.710Z,102356.72
2023-02-14T01:29:57.763Z,102373.41
2023-02-14T01:35:00.392Z,102364.53
2023-02-14T01:40:03.026Z,102360.09
2023-02-14T01:45:07.287Z,102359.13
2023-02-14T01:50:14.338Z,102369.66
2023-02-14T01:55:22.101Z,102361.59
2023-02-14T02:05:46.677Z,102365.94
2023-02-14T02:10:48.661Z,102365.78
2023-02-14T02:16:03.640Z,102368.44
2023-02-14T02:21:24.364Z,102378.03
2023-02-14T02:26:59.251Z,102371.88
2023-02-14T02:32:22.825Z,102374.34
2023-02-14T02:38:00.638Z,102372.63
2023-02-14T02:43:14.446Z,102398.81
2023-02-14T02:48:23.550Z,102395.28
2023-02-14T02:53:43.125Z,102390.69
2023-02-14T02:58:53.388Z,102399.47
2023-02-14T03:04:19.812Z,102387.91
2023-02-14T03:09:24.466Z,102396.78
2023-02-14T03:14:32.836Z,102394.06
2023-02-14T03:20:06.442Z,102383.47
2023-02-14T03:25:40.528Z,102385.13
2023-02-14T03:31:07.400Z,102391.19
2023-02-14T03:36:13.636Z,102389.38
2023-02-14T03:41:22.758Z,102384.88
2023-02-14T03:46:47.689Z,102403.28
2023-02-14T03:51:53.163Z,102408.44
2023-02-14T03:57:17.466Z,102405.72
2023-02-14T04:02:27.525Z,102400.47
2023-02-14T04:07:29.587Z,102399.50
2023-02-14T04:12:37.773Z,102408.19
2023-02-14T04:17:59.175Z,102410.75
2023-02-14T04:23:03.306Z,102401.13
2023-02-14T04:28:05.681Z,102412.47
2023-02-14T04:33:08.578Z,102407.94
2023-02-14T04:38:10.652Z,102402.63
2023-02-14T04:43:12.660Z,102414.84
2023-02-14T04:48:14.697Z,102418.38
2023-02-14T04:53:19.605Z,102413.00
2023-02-14T04:58:21.604Z,102416.53
2023-02-14T05:03:23.689Z,102408.47
2023-02-14T05:08:25.658Z,102408.47
2023-02-14T05:13:28.789Z,102403.06
2023-02-14T05:18:30.799Z,102404.88
2023-02-14T05:23:32.774Z,102404.78
2023-02-14T05:28:34.938Z,102416.09
2023-02-14T05:33:37.022Z,102422.19
2023-02-14T05:38:39.057Z,102429.97
2023-02-14T05:43:41.104Z,102434.31
2023-02-14T05:48:43.104Z,102429.00
2023-02-14T05:53:45.121Z,102437.69
2023-02-14T05:58:47.083Z,102428.00
2023-02-14T06:03:49.078Z,102450.81
2023-02-14T06:08:51.152Z,102461.16
2023-02-14T06:13:53.104Z,102470.75
2023-02-14T06:18:55.110Z,102477.66
2023-02-14T06:23:57.257Z,102481.09
2023-02-14T06:28:59.752Z,102493.31
2023-02-14T06:34:01.894Z,102488.06
2023-02-14T06:39:04.022Z,102491.44
2023-02-14T06:44:06.053Z,102481.00
2023-02-14T06:49:08.114Z,102476.50
2023-02-14T06:54:10.104Z,102479.03
2023-02-14T06:59:12.052Z,102479.94
2023-02-14T07:04:14.042Z,102485.19
2023-02-14T07:09:18.941Z,102494.88
2023-02-14T07:14:20.991Z,102498.41
2023-02-14T07:19:22.980Z,102498.22
2023-02-14T07:24:25.296Z,102501.03
2023-02-14T07:29:27.313Z,102507.91
2023-02-14T07:34:29.335Z,102510.63
2023-02-14T07:39:31.347Z,102511.53
2023-02-14T07:44:33.381Z,102516.69
2023-02-14T07:49:35.665Z,102515.88
2023-02-14T07:54:39.072Z,102524.66
2023-02-14T07:59:41.081Z,102520.31
2023-02-14T08:04:43.147Z,102517.78
2023-02-14T08:09:47.614Z,102519.50
2023-02-14T08:14:49.598Z,102523.03
2023-02-14T08:19:52.058Z,102518.59
2023-02-14T08:24:54.147Z,102522.22
2023-02-14T08:29:56.260Z,102536.31
2023-02-14T08:34:58.445Z,102532.88
2023-02-14T08:40:00.555Z,102544.28
2023-02-14T08:45:02.626Z,102535.59
2023-02-14T08:50:07.362Z,102538.31
2023-02-14T08:55:10.010Z,102545.47
2023-02-14T09:00:12.581Z,102550.78
2023-02-14T09:05:14.715Z,102557.84
2023-02-14T09:10:18.782Z,102557.13
2023-02-14T09:15:20.958Z,102563.38
2023-02-14T09:20:23.178Z,102567.00
2023-02-14T09:25:25.408Z,102573.16
2023-02-14T09:30:27.581Z,102564.44
2023-02-14T09:35:29.666Z,102570.66
2023-02-14T09:40:33.646Z,102567.38
2023-02-14T09:45:36.575Z,102575.28
2023-02-14T09:50:45.586Z,102583.41
2023-02-14T09:56:02.258Z,102579.97
2023-02-14T10:01:23.107Z,102583.66
2023-02-14T10:06:37.332Z,102582.94
2023-02-14T10:11:41.000Z,102575.13
2023-02-14T10:17:08.738Z,102570.22
2023-02-14T10:22:17.428Z,102573.94
2023-02-14T10:27:36.793Z,102559.22
2023-02-14T10:32:59.369Z,102555.88
2023-02-14T10:38:17.674Z,102550.94
2023-02-14T10:43:29.587Z,102551.03
2023-02-14T10:48:58.163Z,102548.72
2023-02-14T10:54:23.003Z,102551.78
2023-02-14T10:59:32.474Z,102544.13
2023-02-14T11:04:35.940Z,102536.56
2023-02-14T11:09:38.054Z,102533.38
2023-02-14T11:14:41.140Z,102526.53
2023-02-14T11:20:03.651Z,102518.97
2023-02-14T11:25:18.224Z,102530.75
2023-02-14T11:30:41.567Z,102518.00
2023-02-14T11:35:51.795Z,102520.94
2023-02-14T11:40:57.292Z,102523.00
2023-02-14T11:46:17.417Z,102517.22
2023-02-14T11:51:24.395Z,102521.16
2023-02-14T11:56:48.802Z,102522.34
2023-02-14T12:01:52.828Z,102515.66
2023-02-14T12:06:55.300Z,102517.84
2023-02-14T12:12:01.349Z,102520.88
2023-02-14T12:17:12.231Z,102506.28
2023-02-14T12:22:21.103Z,102502.22
2023-02-14T12:27:35.633Z,102496.41
2023-02-14T12:32:39.291Z,102493.06
2023-02-14T12:38:04.306Z,102502.16
2023-02-14T12:43:25.643Z,102497.19
2023-02-14T12:48:58.477Z,102493.09
2023-02-14T12:54:18.874Z,102490.69
2023-02-14T12:59:23.944Z,102498.81
2023-02-14T13:05:02.034Z,102494.59
2023-02-14T13:10:27.612Z,102500.16
2023-02-14T13:15:52.923Z,102499.53
2023-02-14T13:20:59.166Z,102484.69
2023-02-14T13:26:07.989Z,102481.28
2023-02-14T13:31:11.496Z,102485.03
2023-02-14T13:36:14.334Z,102480.72
2023-02-14T13:41:19.764Z,102478.25
2023-02-14T13:46:34.885Z,102483.66
2023-02-14T13:51:52.065Z,102478.44
2023-02-14T13:56:54.270Z,102485.53
2023-02-14T14:02:16.727Z,102480.31
2023-02-14T14:07:27.289Z,102474.28
2023-02-14T14:12:29.324Z,102469.06
2023-02-14T14:17:34.054Z,102471.78
2023-02-14T14:22:48.120Z,102473.53
2023-02-14T14:27:51.192Z,102478.78
2023-02-14T14:32:53.622Z,102474.34
2023-02-14T14:37:58.027Z,102485.88
2023-02-14T14:43:18.354Z,102484.84
2023-02-14T14:48:41.510Z,102485.81
2023-02-14T14:54:01.938Z,102480.47
2023-02-14T14:59:28.193Z,102476.84
2023-02-14T15:04:35.708Z,102473.25
2023-02-14T15:09:37.824Z,102472.28
2023-02-14T15:14:43.402Z,102470.47
2023-02-14T15:19:51.251Z,102472.13
2023-02-14T15:24:54.013Z,102464.09
2023-02-14T15:29:59.906Z,102471.91
2023-02-14T15:35:05.865Z,102463.88
2023-02-14T15:40:09.303Z,102470.81
2023-02-14T15:45:46.186Z,102482.94
2023-02-14T15:50:55.302Z,102487.25
2023-02-14T15:56:08.283Z,102484.34
2023-02-14T16:01:10.829Z,102485.09
2023-02-14T16:06:40.107Z,102506.94
2023-02-14T16:11:42.530Z,102504.16
2023-02-14T16:16:59.897Z,102510.19
2023-02-14T16:22:02.813Z,102502.97
2023-02-14T16:27:09.333Z,102502.81
2023-02-14T16:32:21.973Z,102516.75
2023-02-14T16:37:35.536Z,102515.69
2023-02-14T16:42:41.643Z,102510.22
2023-02-14T16:47:46.653Z,102515.34
2023-02-14T16:52:53.080Z,102515.13
2023-02-14T16:57:55.743Z,102519.41
2023-02-14T17:03:11.168Z,102509.63
2023-02-14T17:08:16.732Z,102513.03
2023-02-14T17:13:24.988Z,102512.00
2023-02-14T17:18:28.967Z,102517.13
2023-02-14T17:23:32.314Z,102520.44
2023-02-14T17:28:34.683Z,102527.28
2023-02-14T17:33:37.648Z,102526.28
2023-02-14T17:38:43.762Z,102527.88
2023-02-14T17:43:48.224Z,102521.63
2023-02-14T17:48:51.002Z,102523.28
2023-02-14T17:53:53.559Z,102524.94
2023-02-14T17:58:56.539Z,102517.72
2023-02-14T18:03:59.677Z,102517.63
2023-02-14T18:09:06.547Z,102517.41
2023-02-14T18:14:11.122Z,102514.69
2023-02-14T18:19:20.356Z,102519.06
2023-02-14T18:24:23.675Z,102509.19
2023-02-14T18:29:26.753Z,102518.81
2023-02-14T18:34:31.187Z,102518.75
2023-02-14T18:39:35.181Z,102513.31
2023-02-14T18:44:37.723Z,102512.19
2023-02-14T18:49:46.750Z,102513.91
2023-02-14T18:54:49.876Z,102505.88
2023-02-14T18:59:52.937Z,102513.69
2023-02-14T19:05:00.354Z,102496.00
2023-02-14T19:10:08.080Z,102506.47
2023-02-14T19:15:13.121Z,102516.81
2023-02-14T19:20:19.923Z,102507.06
2023-02-14T19:25:23.583Z,102521.03
2023-02-14T19:30:26.875Z,102516.50
2023-02-14T19:35:30.968Z,102517.25
2023-02-14T19:40:36.104Z,102508.31
2023-02-14T19:45:40.307Z,102505.50
2023-02-14T19:50:46.436Z,102503.72
2023-02-14T19:55:50.144Z,102504.34
2023-02-14T20:01:01.569Z,102498.00
2023-02-14T20:06:05.337Z,102488.91
2023-02-14T20:11:31.042Z,102501.97
2023-02-14T20:16:37.591Z,102496.47
2023-02-14T20:21:43.305Z,102498.78
2023-02-14T20:26:48.655Z,102497.47
2023-02-14T20:31:55.929Z,102489.09
2023-02-14T20:37:00.314Z,102489.56
2023-02-14T20:42:04.447Z,102479.41
2023-02-14T20:47:09.848Z,102483.41
2023-02-14T20:52:14.379Z,102486.38
2023-02-14T20:57:19.659Z,102489.47
2023-02-14T21:02:23.282Z,102482.13
2023-02-14T21:07:31.141Z,102481.53
2023-02-14T21:12:35.760Z,102492.41
2023-02-14T21:17:39.133Z,102494.53
2023-02-14T21:22:42.219Z,102486.31
2023-02-14T21:27:44.538Z,102488.50
2023-02-14T21:32:48.432Z,102483.63
2023-02-14T21:37:52.464Z,102485.16
2023-02-14T21:42:55.688Z,102490.16
2023-02-14T21:48:17.106Z,102487.25
2023-02-14T21:53:20.895Z,102496.69
2023-02-14T21:58:23.567Z,102494.88
2023-02-14T22:03:26.251Z,102496.50
2023-02-14T22:08:28.944Z,102491.97
2023-02-14T22:13:31.223Z,102485.91
2023-02-14T22:18:33.767Z,102479.59
2023-02-14T22:23:37.473Z,102483.03
2023-02-14T22:28:41.449Z,102474.34
2023-02-14T22:33:44.188Z,102477.59
2023-02-14T22:38:46.495Z,102475.88
2023-02-14T22:43:48.632Z,102478.41
2023-02-14T22:48:51.819Z,102479.41
2023-02-14T22:53:56.772Z,102474.97
2023-02-14T22:59:02.254Z,102470.53
2023-02-14T23:04:05.043Z,102468.81
2023-02-14T23:09:10.057Z,102465.28
2023-02-14T23:14:32.596Z,102460.06
2023-02-14T23:19:54.565Z,102460.06
2023-02-14T23:24:59.361Z,102460.13
2023-02-14T23:30:01.708Z,102449.56
2023-02-14T23:35:04.440Z,102454.91
2023-02-14T23:40:07.397Z,102443.41
2023-02-14T23:45:48.066Z,102442.59
2023-02-14T23:50:50.170Z,102441.69
2023-02-14T23:55:52.130Z,102441.69
